sensor_id;sensor_type;location;lat;lon;timestamp;pressure;altitude;pressure_sealevel;temperature;humidity
75891;BME280;64571;47.512;19.054;2023-04-03T00:00:02;100325.44;;;8.58;59.03
75891;BME280;64571;47.512;19.054;2023-04-03T00:03:07;100335.87;;;8.71;58.33
75891;BME280;64571;47.512;19.054;2023-04-03T00:06:11;100343.72;;;8.59;57.92
75891;BME280;64571;47.512;19.054;2023-04-03T00:09:14;100321.38;;;8.45;57.76
75891;BME280;64571;47.512;19.054;2023-04-03T00:12:16;100340.53;;;8.26;58.22
75891;BME280;64571;47.512;19.054;2023-04-03T00:15:19;100341.91;;;8.34;58.51
75891;BME280;64571;47.512;19.054;2023-04-03T00:18:21;100323.44;;;8.14;58.39
75891;BME280;64571;47.512;19.054;2023-04-03T00:21:24;100326.69;;;8.26;58.45
75891;BME280;64571;47.512;19.054;2023-04-03T00:24:27;100342.16;;;8.43;58.67
75891;BME280;64571;47.512;19.054;2023-04-03T00:27:29;100326.03;;;7.90;58.88
75891;BME280;64571;47.512;19.054;2023-04-03T00:30:32;100352.28;;;8.03;58.80
75891;BME280;64571;47.512;19.054;2023-04-03T00:33:35;100343.38;;;8.06;58.86
75891;BME280;64571;47.512;19.054;2023-04-03T00:36:38;100348.13;;;7.95;58.97
75891;BME280;64571;47.512;19.054;2023-04-03T00:39:40;100352.78;;;8.10;58.84
75891;BME280;64571;47.512;19.054;2023-04-03T00:42:45;100351.97;;;8.09;58.51
75891;BME280;64571;47.512;19.054;2023-04-03T00:45:51;100341.75;;;8.05;58.52
75891;BME280;64571;47.512;19.054;2023-04-03T00:48:54;100358.63;;;8.08;58.13
75891;BME280;64571;47.512;19.054;2023-04-03T00:51:56;100359.53;;;7.83;58.39
75891;BME280;64571;47.512;19.054;2023-04-03T00:55:04;100360.91;;;7.86;58.51
75891;BME280;64571;47.512;19.054;2023-04-03T00:58:08;100345.69;;;7.78;58.49
75891;BME280;64571;47.512;19.054;2023-04-03T01:01:16;100367.81;;;7.78;58.72
75891;BME280;64571;47.512;19.054;2023-04-03T01:04:35;100359.00;;;7.76;58.54
75891;BME280;64571;47.512;19.054;2023-04-03T01:07:39;100364.00;;;7.64;58.74
75891;BME280;64571;47.512;19.054;2023-04-03T01:10:42;100356.81;;;7.58;58.67
75891;BME280;64571;47.512;19.054;2023-04-03T01:13:46;100369.78;;;7.68;58.63
75891;BME280;64571;47.512;19.054;2023-04-03T01:16:55;100375.03;;;7.84;58.39
75891;BME280;64571;47.512;19.054;2023-04-03T01:26:33;100366.16;;;7.82;58.16
75891;BME280;64571;47.512;19.054;2023-04-03T01:29:36;100354.00;;;7.78;57.81
75891;BME280;64571;47.512;19.054;2023-04-03T01:32:39;100338.56;;;7.57;57.87
75891;BME280;64571;47.512;19.054;2023-04-03T01:35:42;100339.69;;;7.51;57.89
75891;BME280;64571;47.512;19.054;2023-04-03T01:38:44;100360.09;;;7.65;57.83
75891;BME280;64571;47.512;19.054;2023-04-03T01:41:47;100363.72;;;7.60;58.08
75891;BME280;64571;47.512;19.054;2023-04-03T01:44:51;100356.50;;;7.65;57.97
75891;BME280;64571;47.512;19.054;2023-04-03T01:47:54;100366.47;;;7.76;58.02
75891;BME280;64571;47.512;19.054;2023-04-03T01:50:58;100373.06;;;7.90;57.77
75891;BME280;64571;47.512;19.054;2023-04-03T01:54:01;100374.16;;;7.94;57.40
75891;BME280;64571;47.512;19.054;2023-04-03T01:57:04;100363.38;;;7.93;56.76
75891;BME280;64571;47.512;19.054;2023-04-03T02:00:07;100376.41;;;7.82;57.05
75891;BME280;64571;47.512;19.054;2023-04-03T02:03:14;100362.34;;;7.58;56.86
75891;BME280;64571;47.512;19.054;2023-04-03T02:06:17;100362.87;;;7.60;57.20
75891;BME280;64571;47.512;19.054;2023-04-03T02:09:19;100374.22;;;7.69;57.26
75891;BME280;64571;47.512;19.054;2023-04-03T02:12:22;100382.78;;;7.77;57.07
75891;BME280;64571;47.512;19.054;2023-04-03T02:15:24;100369.00;;;7.62;57.02
75891;BME280;64571;47.512;19.054;2023-04-03T02:18:27;100385.56;;;7.72;56.98
75891;BME280;64571;47.512;19.054;2023-04-03T02:21:30;100368.44;;;7.45;57.02
75891;BME280;64571;47.512;19.054;2023-04-03T02:24:32;100366.25;;;7.16;57.88
75891;BME280;64571;47.512;19.054;2023-04-03T02:27:35;100371.22;;;6.99;58.49
75891;BME280;64571;47.512;19.054;2023-04-03T02:30:38;100387.81;;;7.19;58.11
75891;BME280;64571;47.512;19.054;2023-04-03T02:33:41;100367.91;;;7.22;58.21
75891;BME280;64571;47.512;19.054;2023-04-03T02:36:44;100387.78;;;7.50;57.99
75891;BME280;64571;47.512;19.054;2023-04-03T02:39:47;100377.56;;;7.50;57.71
75891;BME280;64571;47.512;19.054;2023-04-03T02:42:50;100367.34;;;7.35;58.01
75891;BME280;64571;47.512;19.054;2023-04-03T02:45:53;100366.78;;;7.23;57.90
75891;BME280;64571;47.512;19.054;2023-04-03T02:48:56;100363.50;;;7.26;57.97
75891;BME280;64571;47.512;19.054;2023-04-03T02:51:58;100385.34;;;7.43;57.71
75891;BME280;64571;47.512;19.054;2023-04-03T02:55:01;100382.28;;;7.40;57.72
75891;BME280;64571;47.512;19.054;2023-04-03T02:58:04;100367.88;;;6.97;58.08
75891;BME280;64571;47.512;19.054;2023-04-03T03:01:08;100388.66;;;7.30;58.08
75891;BME280;64571;47.512;19.054;2023-04-03T03:04:11;100371.78;;;7.21;57.85
75891;BME280;64571;47.512;19.054;2023-04-03T03:07:14;100385.87;;;7.09;57.96
75891;BME280;64571;47.512;19.054;2023-04-03T03:10:17;100384.50;;;7.12;57.92
75891;BME280;64571;47.512;19.054;2023-04-03T03:13:20;100388.91;;;7.13;57.89
75891;BME280;64571;47.512;19.054;2023-04-03T03:16:22;100391.69;;;7.13;58.05
75891;BME280;64571;47.512;19.054;2023-04-03T03:19:25;100395.56;;;7.17;58.01
75891;BME280;64571;47.512;19.054;2023-04-03T03:22:28;100388.91;;;7.23;57.74
75891;BME280;64571;47.512;19.054;2023-04-03T03:25:33;100398.31;;;7.32;57.77
75891;BME280;64571;47.512;19.054;2023-04-03T03:28:36;100396.09;;;7.24;57.58
75891;BME280;64571;47.512;19.054;2023-04-03T03:31:39;100387.78;;;7.29;57.82
75891;BME280;64571;47.512;19.054;2023-04-03T03:34:42;100373.44;;;7.17;57.56
75891;BME280;64571;47.512;19.054;2023-04-03T03:37:45;100379.50;;;7.19;57.59
75891;BME280;64571;47.512;19.054;2023-04-03T03:40:49;100401.06;;;7.32;57.78
75891;BME280;64571;47.512;19.054;2023-04-03T03:43:52;100377.03;;;7.18;57.56
75891;BME280;64571;47.512;19.054;2023-04-03T03:46:55;100374.53;;;7.06;57.62
75891;BME280;64571;47.512;19.054;2023-04-03T03:49:58;100397.72;;;6.84;58.25
75891;BME280;64571;47.512;19.054;2023-04-03T03:53:01;100397.16;;;6.82;58.57
75891;BME280;64571;47.512;19.054;2023-04-03T03:56:04;100378.12;;;6.86;58.59
75891;BME280;64571;47.512;19.054;2023-04-03T03:59:07;100394.16;;;6.99;58.79
75891;BME280;64571;47.512;19.054;2023-04-03T04:02:10;100394.69;;;7.01;58.12
75891;BME280;64571;47.512;19.054;2023-04-03T04:05:13;100379.75;;;6.97;58.28
75891;BME280;64571;47.512;19.054;2023-04-03T04:08:16;100391.94;;;7.01;58.16
75891;BME280;64571;47.512;19.054;2023-04-03T04:11:19;100396.63;;;6.96;58.16
75891;BME280;64571;47.512;19.054;2023-04-03T04:14:24;100396.09;;;7.04;58.45
75891;BME280;64571;47.512;19.054;2023-04-03T04:17:28;100392.22;;;6.95;58.02
75891;BME280;64571;47.512;19.054;2023-04-03T04:20:32;100402.44;;;6.89;58.67
75891;BME280;64571;47.512;19.054;2023-04-03T04:23:35;100385.28;;;6.77;58.91
75891;BME280;64571;47.512;19.054;2023-04-03T04:26:38;100404.38;;;6.94;59.27
75891;BME280;64571;47.512;19.054;2023-04-03T04:29:41;100396.34;;;6.87;59.06
75891;BME280;64571;47.512;19.054;2023-04-03T04:32:44;100417.91;;;6.90;58.80
75891;BME280;64571;47.512;19.054;2023-04-03T04:35:47;100417.88;;;6.80;58.80
75891;BME280;64571;47.512;19.054;2023-04-03T04:38:51;100409.56;;;6.75;58.90
75891;BME280;64571;47.512;19.054;2023-04-03T04:41:55;100405.97;;;6.64;58.88
75891;BME280;64571;47.512;19.054;2023-04-03T04:44:58;100406.50;;;6.61;59.19
75891;BME280;64571;47.512;19.054;2023-04-03T04:48:01;100433.59;;;6.69;59.10
75891;BME280;64571;47.512;19.054;2023-04-03T04:51:04;100424.75;;;6.62;59.06
75891;BME280;64571;47.512;19.054;2023-04-03T04:54:07;100413.09;;;6.55;58.86
75891;BME280;64571;47.512;19.054;2023-04-03T04:57:10;100436.38;;;6.79;59.04
75891;BME280;64571;47.512;19.054;2023-04-03T05:00:14;100434.69;;;6.73;58.49
75891;BME280;64571;47.512;19.054;2023-04-03T05:03:17;100415.88;;;6.60;58.63
75891;BME280;64571;47.512;19.054;2023-04-03T05:06:20;100436.66;;;6.78;58.66
75891;BME280;64571;47.512;19.054;2023-04-03T05:09:23;100438.31;;;6.84;58.73
75891;BME280;64571;47.512;19.054;2023-04-03T05:12:27;100420.59;;;6.70;58.54
75891;BME280;64571;47.512;19.054;2023-04-03T05:15:29;100444.63;;;6.69;58.90
75891;BME280;64571;47.512;19.054;2023-04-03T05:18:33;100440.56;;;6.19;60.10
75891;BME280;64571;47.512;19.054;2023-04-03T05:21:36;100434.22;;;6.24;60.00
75891;BME280;64571;47.512;19.054;2023-04-03T05:24:39;100434.75;;;6.21;59.95
75891;BME280;64571;47.512;19.054;2023-04-03T05:27:42;100450.66;;;6.56;59.97
75891;BME280;64571;47.512;19.054;2023-04-03T05:30:45;100449.59;;;6.62;60.07
75891;BME280;64571;47.512;19.054;2023-04-03T05:33:48;100447.37;;;6.64;59.22
75891;BME280;64571;47.512;19.054;2023-04-03T05:36:51;100422.25;;;6.66;58.92
75891;BME280;64571;47.512;19.054;2023-04-03T05:39:54;100449.03;;;6.70;60.38
75891;BME280;64571;47.512;19.054;2023-04-03T05:42:57;100432.78;;;6.84;59.97
75891;BME280;64571;47.512;19.054;2023-04-03T05:46:00;100434.19;;;6.81;58.71
75891;BME280;64571;47.512;19.054;2023-04-03T05:49:03;100436.34;;;6.74;58.39
75891;BME280;64571;47.512;19.054;2023-04-03T05:52:19;100429.44;;;6.67;58.77
75891;BME280;64571;47.512;19.054;2023-04-03T05:55:23;100432.44;;;6.55;58.62
75891;BME280;64571;47.512;19.054;2023-04-03T05:58:25;100460.37;;;6.69;58.47
75891;BME280;64571;47.512;19.054;2023-04-03T06:01:28;100457.34;;;6.75;58.66
75891;BME280;64571;47.512;19.054;2023-04-03T06:04:31;100445.47;;;6.75;58.72
75891;BME280;64571;47.512;19.054;2023-04-03T06:07:34;100447.97;;;6.76;58.35
75891;BME280;64571;47.512;19.054;2023-04-03T06:10:36;100453.00;;;6.95;58.10
75891;BME280;64571;47.512;19.054;2023-04-03T06:13:40;100451.41;;;7.50;56.76
75891;BME280;64571;47.512;19.054;2023-04-03T06:16:43;100447.25;;;7.17;56.85
75891;BME280;64571;47.512;19.054;2023-04-03T06:19:45;100460.81;;;7.79;55.90
75891;BME280;64571;47.512;19.054;2023-04-03T06:22:49;100463.75;;;8.24;54.26
75891;BME280;64571;47.512;19.054;2023-04-03T06:25:52;100468.44;;;8.33;53.72
75891;BME280;64571;47.512;19.054;2023-04-03T06:28:55;100468.22;;;8.20;53.83
75891;BME280;64571;47.512;19.054;2023-04-03T06:31:58;100457.19;;;7.84;54.81
75891;BME280;64571;47.512;19.054;2023-04-03T06:35:00;100471.84;;;7.95;55.03
75891;BME280;64571;47.512;19.054;2023-04-03T06:38:03;100476.69;;;8.54;53.61
75891;BME280;64571;47.512;19.054;2023-04-03T06:41:11;100459.91;;;8.20;53.87
75891;BME280;64571;47.512;19.054;2023-04-03T06:44:14;100474.28;;;8.22;54.43
75891;BME280;64571;47.512;19.054;2023-04-03T06:47:18;100482.28;;;8.28;53.76
75891;BME280;64571;47.512;19.054;2023-04-03T06:50:20;100481.78;;;8.11;54.38
75891;BME280;64571;47.512;19.054;2023-04-03T06:53:23;100477.66;;;8.03;54.84
75891;BME280;64571;47.512;19.054;2023-04-03T06:56:26;100487.84;;;8.18;54.49
75891;BME280;64571;47.512;19.054;2023-04-03T06:59:29;100487.59;;;8.09;55.01
75891;BME280;64571;47.512;19.054;2023-04-03T07:02:32;100486.19;;;8.22;54.63
75891;BME280;64571;47.512;19.054;2023-04-03T07:05:35;100471.81;;;8.20;54.22
75891;BME280;64571;47.512;19.054;2023-04-03T07:08:38;100500.56;;;8.34;53.07
75891;BME280;64571;47.512;19.054;2023-04-03T07:11:41;100500.88;;;8.38;51.74
75891;BME280;64571;47.512;19.054;2023-04-03T07:14:44;100504.72;;;8.37;51.33
75891;BME280;64571;47.512;19.054;2023-04-03T07:17:46;100494.72;;;8.36;51.36
75891;BME280;64571;47.512;19.054;2023-04-03T07:20:49;100500.00;;;8.48;50.74
75891;BME280;64571;47.512;19.054;2023-04-03T07:23:52;100513.53;;;8.54;50.43
75891;BME280;64571;47.512;19.054;2023-04-03T07:26:55;100495.53;;;8.57;50.07
75891;BME280;64571;47.512;19.054;2023-04-03T07:29:57;100512.44;;;8.50;50.14
75891;BME280;64571;47.512;19.054;2023-04-03T07:33:00;100519.03;;;8.75;49.85
75891;BME280;64571;47.512;19.054;2023-04-03T07:36:04;100513.69;;;8.88;49.64
75891;BME280;64571;47.512;19.054;2023-04-03T07:39:09;100524.78;;;8.88;49.83
75891;BME280;64571;47.512;19.054;2023-04-03T07:42:14;100517.47;;;9.08;49.13
75891;BME280;64571;47.512;19.054;2023-04-03T07:45:16;100508.03;;;9.09;49.29
75891;BME280;64571;47.512;19.054;2023-04-03T07:48:21;100527.41;;;9.19;48.93
75891;BME280;64571;47.512;19.054;2023-04-03T07:51:24;100508.63;;;9.06;49.01
75891;BME280;64571;47.512;19.054;2023-04-03T07:54:28;100520.72;;;9.25;49.19
75891;BME280;64571;47.512;19.054;2023-04-03T07:57:31;100515.78;;;9.12;49.65
75891;BME280;64571;47.512;19.054;2023-04-03T08:00:33;100512.72;;;9.19;49.35
75891;BME280;64571;47.512;19.054;2023-04-03T08:03:36;100514.87;;;9.27;49.58
75891;BME280;64571;47.512;19.054;2023-04-03T08:06:41;100508.00;;;9.19;48.46
75891;BME280;64571;47.512;19.054;2023-04-03T08:09:48;100531.91;;;9.10;47.93
75891;BME280;64571;47.512;19.054;2023-04-03T08:12:51;100527.66;;;9.23;47.74
75891;BME280;64571;47.512;19.054;2023-04-03T08:15:54;100522.44;;;9.16;47.28
75891;BME280;64571;47.512;19.054;2023-04-03T08:18:56;100540.75;;;9.12;47.67
75891;BME280;64571;47.512;19.054;2023-04-03T08:21:59;100532.16;;;9.08;47.71
75891;BME280;64571;47.512;19.054;2023-04-03T08:25:03;100532.59;;;9.31;47.60
75891;BME280;64571;47.512;19.054;2023-04-03T08:28:06;100533.78;;;9.64;46.80
75891;BME280;64571;47.512;19.054;2023-04-03T08:31:12;100536.19;;;9.76;46.52
75891;BME280;64571;47.512;19.054;2023-04-03T08:34:16;100538.84;;;9.91;45.47
75891;BME280;64571;47.512;19.054;2023-04-03T08:37:19;100536.44;;;9.79;46.53
75891;BME280;64571;47.512;19.054;2023-04-03T08:40:22;100522.66;;;9.69;46.19
75891;BME280;64571;47.512;19.054;2023-04-03T08:43:54;100542.00;;;9.79;45.34
75891;BME280;64571;47.512;19.054;2023-04-03T08:47:20;100540.22;;;10.28;44.24
75891;BME280;64571;47.512;19.054;2023-04-03T08:50:31;100531.75;;;10.09;43.88
75891;BME280;64571;47.512;19.054;2023-04-03T08:53:36;100537.22;;;10.19;43.63
75891;BME280;64571;47.512;19.054;2023-04-03T08:56:41;100517.38;;;10.02;43.62
75891;BME280;64571;47.512;19.054;2023-04-03T08:59:44;100516.34;;;10.27;43.71
75891;BME280;64571;47.512;19.054;2023-04-03T09:02:51;100534.94;;;10.21;43.44
75891;BME280;64571;47.512;19.054;2023-04-03T09:06:11;100541.53;;;10.83;42.70
75891;BME280;64571;47.512;19.054;2023-04-03T09:09:36;100542.72;;;11.63;41.21
75891;BME280;64571;47.512;19.054;2023-04-03T09:12:53;100522.69;;;11.99;40.18
75891;BME280;64571;47.512;19.054;2023-04-03T09:15:57;100539.22;;;11.33;40.52
75891;BME280;64571;47.512;19.054;2023-04-03T09:22:41;100545.37;;;12.06;39.27
75891;BME280;64571;47.512;19.054;2023-04-03T09:25:58;100541.00;;;12.32;38.80
75891;BME280;64571;47.512;19.054;2023-04-03T09:29:07;100533.88;;;11.75;39.49
75891;BME280;64571;47.512;19.054;2023-04-03T09:32:32;100522.75;;;11.56;39.87
75891;BME280;64571;47.512;19.054;2023-04-03T09:35:37;100543.84;;;11.62;40.41
75891;BME280;64571;47.512;19.054;2023-04-03T09:39:03;100528.03;;;11.38;39.96
75891;BME280;64571;47.512;19.054;2023-04-03T09:42:16;100545.19;;;11.83;40.00
75891;BME280;64571;47.512;19.054;2023-04-03T09:45:34;100537.12;;;11.82;40.00
75891;BME280;64571;47.512;19.054;2023-04-03T09:48:37;100529.91;;;12.00;40.07
75891;BME280;64571;47.512;19.054;2023-04-03T09:51:39;100527.31;;;12.36;39.32
75891;BME280;64571;47.512;19.054;2023-04-03T09:54:42;100525.03;;;12.38;38.79
75891;BME280;64571;47.512;19.054;2023-04-03T09:57:46;100531.97;;;12.96;37.80
75891;BME280;64571;47.512;19.054;2023-04-03T10:00:58;100527.97;;;13.02;37.76
75891;BME280;64571;47.512;19.054;2023-04-03T10:07:34;100530.50;;;11.97;39.26
75891;BME280;64571;47.512;19.054;2023-04-03T10:10:39;100531.66;;;11.58;39.96
75891;BME280;64571;47.512;19.054;2023-04-03T10:13:53;100529.06;;;11.43;40.79
75891;BME280;64571;47.512;19.054;2023-04-03T10:20:39;100536.28;;;11.25;40.85
75891;BME280;64571;47.512;19.054;2023-04-03T10:23:50;100517.63;;;11.06;40.86
75891;BME280;64571;47.512;19.054;2023-04-03T10:27:08;100529.16;;;11.19;40.86
75891;BME280;64571;47.512;19.054;2023-04-03T10:33:42;100513.78;;;11.21;40.14
75891;BME280;64571;47.512;19.054;2023-04-03T10:40:02;100523.09;;;10.93;40.68
75891;BME280;64571;47.512;19.054;2023-04-03T10:43:29;100533.97;;;11.13;40.50
75891;BME280;64571;47.512;19.054;2023-04-03T10:53:24;100525.25;;;10.77;40.92
75891;BME280;64571;47.512;19.054;2023-04-03T10:56:47;100524.97;;;10.97;40.68
75891;BME280;64571;47.512;19.054;2023-04-03T11:00:04;100523.09;;;10.93;40.34
75891;BME280;64571;47.512;19.054;2023-04-03T11:03:34;100513.59;;;10.94;40.02
75891;BME280;64571;47.512;19.054;2023-04-03T11:07:18;100529.53;;;11.31;39.48
75891;BME280;64571;47.512;19.054;2023-04-03T11:10:41;100526.38;;;11.19;39.06
75891;BME280;64571;47.512;19.054;2023-04-03T11:20:28;100516.28;;;11.23;39.02
75891;BME280;64571;47.512;19.054;2023-04-03T11:23:37;100519.22;;;11.12;39.62
75891;BME280;64571;47.512;19.054;2023-04-03T11:26:51;100511.87;;;11.22;39.32
75891;BME280;64571;47.512;19.054;2023-04-03T11:29:55;100511.31;;;11.20;39.55
75891;BME280;64571;47.512;19.054;2023-04-03T11:36:23;100511.16;;;11.30;39.58
75891;BME280;64571;47.512;19.054;2023-04-03T11:39:36;100502.16;;;11.38;39.25
75891;BME280;64571;47.512;19.054;2023-04-03T11:42:42;100494.13;;;11.36;39.34
75891;BME280;64571;47.512;19.054;2023-04-03T11:46:02;100491.47;;;11.64;38.51
75891;BME280;64571;47.512;19.054;2023-04-03T12:02:35;100501.34;;;11.37;39.00
75891;BME280;64571;47.512;19.054;2023-04-03T12:09:34;100496.59;;;11.19;39.64
75891;BME280;64571;47.512;19.054;2023-04-03T12:12:39;100498.53;;;11.19;39.98
75891;BME280;64571;47.512;19.054;2023-04-03T12:15:51;100467.41;;;10.98;39.77
75891;BME280;64571;47.512;19.054;2023-04-03T12:28:43;100485.47;;;11.38;39.29
75891;BME280;64571;47.512;19.054;2023-04-03T12:35:31;100482.91;;;11.41;39.06
75891;BME280;64571;47.512;19.054;2023-04-03T12:42:32;100478.63;;;11.49;38.84
75891;BME280;64571;47.512;19.054;2023-04-03T12:45:44;100458.31;;;11.49;38.65
75891;BME280;64571;47.512;19.054;2023-04-03T12:48:52;100464.50;;;11.78;38.63
75891;BME280;64571;47.512;19.054;2023-04-03T12:51:57;100470.28;;;11.82;38.11
75891;BME280;64571;47.512;19.054;2023-04-03T12:55:01;100464.97;;;11.66;38.35
75891;BME280;64571;47.512;19.054;2023-04-03T12:58:23;100466.63;;;11.68;38.50
75891;BME280;64571;47.512;19.054;2023-04-03T13:01:26;100471.56;;;11.71;38.46
75891;BME280;64571;47.512;19.054;2023-04-03T13:04:31;100445.91;;;11.41;38.73
75891;BME280;64571;47.512;19.054;2023-04-03T13:07:36;100454.91;;;11.52;38.95
75891;BME280;64571;47.512;19.054;2023-04-03T13:11:10;100455.22;;;11.50;39.13
75891;BME280;64571;47.512;19.054;2023-04-03T13:14:22;100447.56;;;11.75;38.78
75891;BME280;64571;47.512;19.054;2023-04-03T13:17:26;100449.25;;;11.76;38.75
75891;BME280;64571;47.512;19.054;2023-04-03T13:20:32;100429.94;;;11.79;38.25
75891;BME280;64571;47.512;19.054;2023-04-03T13:23:40;100449.50;;;11.93;37.80
75891;BME280;64571;47.512;19.054;2023-04-03T13:26:43;100453.19;;;11.88;38.01
75891;BME280;64571;47.512;19.054;2023-04-03T13:29:50;100432.81;;;11.74;37.63
75891;BME280;64571;47.512;19.054;2023-04-03T13:33:00;100417.94;;;11.65;37.83
75891;BME280;64571;47.512;19.054;2023-04-03T13:36:29;100418.22;;;11.82;37.44
75891;BME280;64571;47.512;19.054;2023-04-03T13:39:36;100436.81;;;12.01;37.60
75891;BME280;64571;47.512;19.054;2023-04-03T13:42:41;100420.47;;;11.80;37.69
75891;BME280;64571;47.512;19.054;2023-04-03T13:52:26;100416.59;;;11.95;37.55
75891;BME280;64571;47.512;19.054;2023-04-03T13:55:35;100424.75;;;12.05;37.42
75891;BME280;64571;47.512;19.054;2023-04-03T13:58:38;100420.63;;;11.89;37.34
75891;BME280;64571;47.512;19.054;2023-04-03T14:04:55;100416.00;;;11.98;37.07
75891;BME280;64571;47.512;19.054;2023-04-03T14:08:00;100413.34;;;12.07;37.28
75891;BME280;64571;47.512;19.054;2023-04-03T14:11:04;100410.44;;;11.98;36.97
75891;BME280;64571;47.512;19.054;2023-04-03T14:14:20;100408.72;;;11.83;37.27
75891;BME280;64571;47.512;19.054;2023-04-03T14:17:25;100407.09;;;11.82;37.48
75891;BME280;64571;47.512;19.054;2023-04-03T14:20:28;100399.41;;;11.74;37.43
75891;BME280;64571;47.512;19.054;2023-04-03T14:23:31;100407.53;;;11.71;37.46
75891;BME280;64571;47.512;19.054;2023-04-03T14:26:35;100406.00;;;11.78;37.90
75891;BME280;64571;47.512;19.054;2023-04-03T14:29:37;100404.06;;;11.79;37.59
75891;BME280;64571;47.512;19.054;2023-04-03T14:32:40;100384.41;;;11.56;37.90
75891;BME280;64571;47.512;19.054;2023-04-03T14:35:43;100406.81;;;11.65;37.86
75891;BME280;64571;47.512;19.054;2023-04-03T14:38:46;100404.56;;;11.67;37.73
75891;BME280;64571;47.512;19.054;2023-04-03T14:41:49;100399.78;;;11.54;37.58
75891;BME280;64571;47.512;19.054;2023-04-03T14:44:52;100404.53;;;11.53;37.83
75891;BME280;64571;47.512;19.054;2023-04-03T14:47:55;100399.31;;;11.47;37.63
75891;BME280;64571;47.512;19.054;2023-04-03T14:50:59;100390.84;;;11.38;37.63
75891;BME280;64571;47.512;19.054;2023-04-03T14:54:15;100402.84;;;11.52;37.85
75891;BME280;64571;47.512;19.054;2023-04-03T14:57:18;100408.94;;;11.54;37.97
75891;BME280;64571;47.512;19.054;2023-04-03T15:00:22;100393.41;;;11.34;37.88
75891;BME280;64571;47.512;19.054;2023-04-03T15:03:24;100400.72;;;11.30;37.70
75891;BME280;64571;47.512;19.054;2023-04-03T15:06:35;100397.81;;;11.22;37.80
75891;BME280;64571;47.512;19.054;2023-04-03T15:09:37;100396.72;;;11.36;37.99
75891;BME280;64571;47.512;19.054;2023-04-03T15:12:41;100393.34;;;11.39;37.60
75891;BME280;64571;47.512;19.054;2023-04-03T15:15:43;100406.13;;;11.40;37.80
75891;BME280;64571;47.512;19.054;2023-04-03T15:18:47;100411.91;;;11.44;38.17
75891;BME280;64571;47.512;19.054;2023-04-03T15:21:49;100400.28;;;11.23;38.41
75891;BME280;64571;47.512;19.054;2023-04-03T15:24:53;100413.19;;;11.33;38.27
75891;BME280;64571;47.512;19.054;2023-04-03T15:27:56;100410.63;;;11.36;38.34
75891;BME280;64571;47.512;19.054;2023-04-03T15:30:59;100407.47;;;11.24;38.73
75891;BME280;64571;47.512;19.054;2023-04-03T15:34:02;100400.88;;;11.01;38.94
75891;BME280;64571;47.512;19.054;2023-04-03T15:37:05;100409.38;;;11.10;39.27
75891;BME280;64571;47.512;19.054;2023-04-03T15:40:08;100387.97;;;10.92;39.12
75891;BME280;64571;47.512;19.054;2023-04-03T15:43:12;100405.78;;;10.90;38.94
75891;BME280;64571;47.512;19.054;2023-04-03T15:46:14;100409.66;;;10.89;39.26
75891;BME280;64571;47.512;19.054;2023-04-03T15:49:18;100409.59;;;10.76;39.48
75891;BME280;64571;47.512;19.054;2023-04-03T15:52:21;100410.88;;;10.64;39.55
75891;BME280;64571;47.512;19.054;2023-04-03T15:55:25;100414.84;;;10.58;39.69
75891;BME280;64571;47.512;19.054;2023-04-03T15:58:28;100418.56;;;10.49;39.82
75891;BME280;64571;47.512;19.054;2023-04-03T16:01:31;100421.41;;;10.44;39.70
75891;BME280;64571;47.512;19.054;2023-04-03T16:04:37;100417.97;;;10.52;39.42
75891;BME280;64571;47.512;19.054;2023-04-03T16:07:40;100424.13;;;10.49;39.41
75891;BME280;64571;47.512;19.054;2023-04-03T16:10:43;100418.75;;;10.33;39.53
75891;BME280;64571;47.512;19.054;2023-04-03T16:13:47;100421.41;;;10.44;39.90
75891;BME280;64571;47.512;19.054;2023-04-03T16:16:50;100424.88;;;10.30;39.93
75891;BME280;64571;47.512;19.054;2023-04-03T16:19:54;100403.41;;;10.12;40.02
75891;BME280;64571;47.512;19.054;2023-04-03T16:22:59;100415.12;;;10.09;40.39
75891;BME280;64571;47.512;19.054;2023-04-03T16:26:02;100406.25;;;10.07;40.33
75891;BME280;64571;47.512;19.054;2023-04-03T16:29:05;100407.34;;;9.82;39.83
75891;BME280;64571;47.512;19.054;2023-04-03T16:32:07;100429.50;;;9.87;39.76
75891;BME280;64571;47.512;19.054;2023-04-03T16:35:11;100438.94;;;9.57;39.59
75891;BME280;64571;47.512;19.054;2023-04-03T16:38:14;100431.78;;;9.51;39.67
75891;BME280;64571;47.512;19.054;2023-04-03T16:41:17;100452.19;;;9.65;39.36
75891;BME280;64571;47.512;19.054;2023-04-03T16:44:20;100459.69;;;9.64;39.35
75891;BME280;64571;47.512;19.054;2023-04-03T16:47:22;100452.12;;;9.41;39.46
75891;BME280;64571;47.512;19.054;2023-04-03T16:50:25;100473.12;;;9.47;39.29
75891;BME280;64571;47.512;19.054;2023-04-03T16:53:28;100483.94;;;9.49;39.32
75891;BME280;64571;47.512;19.054;2023-04-03T16:56:30;100491.72;;;9.47;38.92
75891;BME280;64571;47.512;19.054;2023-04-03T16:59:34;100480.56;;;9.12;39.47
75891;BME280;64571;47.512;19.054;2023-04-03T17:02:36;100507.41;;;9.22;39.26
75891;BME280;64571;47.512;19.054;2023-04-03T17:05:39;100488.16;;;8.97;39.30
75891;BME280;64571;47.512;19.054;2023-04-03T17:08:43;100496.75;;;8.95;39.50
75891;BME280;64571;47.512;19.054;2023-04-03T17:12:00;100534.19;;;8.93;39.25
75891;BME280;64571;47.512;19.054;2023-04-03T17:15:03;100523.12;;;8.87;39.52
75891;BME280;64571;47.512;19.054;2023-04-03T17:18:06;100528.22;;;8.65;39.16
75891;BME280;64571;47.512;19.054;2023-04-03T17:21:09;100537.63;;;8.59;39.39
75891;BME280;64571;47.512;19.054;2023-04-03T17:24:12;100569.13;;;8.88;39.41
75891;BME280;64571;47.512;19.054;2023-04-03T17:27:15;100546.16;;;8.73;39.22